Time;durP1;ratioP1;P1;durP2;ratioP2;P2;SDS_P1;SDS_P2;PMS_P1;PMS_P2;Temp;Humidity;BMP_temperature;BMP_pressure;BME280_temperature;BME280_humidity;BME280_pressure;Samples;Min_cycle;Max_cycle;Signal;HPM_P1;HPM_P2
2024/02/14 00:00:24;;;;;;;2.15;0.77;;;;;;;;;;5064314;28;20040;-76
2024/02/14 00:02:51;;;;;;;0.60;0.57;;;;;;;;;;5051143;28;20060;-79
2024/02/14 00:05:17;;;;;;;0.80;0.70;;;;;;;;;;5049896;28;20455;-80
2024/02/14 00:07:44;;;;;;;0.90;0.60;;;;;;;;;;5055450;28;20056;-80
2024/02/14 00:10:10;;;;;;;0.70;0.70;;;;;;;;;;5059046;28;20025;-79
2024/02/14 00:12:36;;;;;;;1.20;0.60;;;;;;;;;;5050285;28;20438;-79
2024/02/14 00:15:03;;;;;;;1.40;0.70;;;;;;;;;;5047179;28;20056;-79
2024/02/14 00:17:30;;;;;;;0.88;0.77;;;;;;;;;;5059180;28;20055;-79
2024/02/14 00:19:56;;;;;;;1.98;0.75;;;;;;;;;;5049517;28;20017;-80
2024/02/14 00:22:22;;;;;;;1.45;0.80;;;;;;;;;;5060278;28;20064;-77
2024/02/14 00:24:48;;;;;;;1.35;0.70;;;;;;;;;;5062167;28;20051;-76
2024/02/14 00:27:14;;;;;;;1.38;1.08;;;;;;;;;;5058746;28;20017;-76
2024/02/14 00:29:40;;;;;;;1.30;0.70;;;;;;;;;;5070006;28;20078;-77
2024/02/14 00:32:07;;;;;;;1.23;0.80;;;;;;;;;;5059624;28;20029;-78
2024/02/14 00:34:33;;;;;;;1.25;0.70;;;;;;;;;;5056601;28;20140;-78
2024/02/14 00:36:59;;;;;;;0.88;0.70;;;;;;;;;;5054733;28;20028;-80
2024/02/14 00:39:25;;;;;;;1.95;0.82;;;;;;;;;;5057260;28;20041;-80
2024/02/14 00:41:52;;;;;;;1.25;0.65;;;;;;;;;;5053779;28;20440;-80
2024/02/14 00:44:19;;;;;;;1.15;0.88;;;;;;;;;;5058089;28;20021;-79
2024/02/14 00:46:45;;;;;;;1.40;0.80;;;;;;;;;;5045810;28;20022;-80
2024/02/14 00:49:13;;;;;;;1.00;0.60;;;;;;;;;;5057148;28;20425;-80
2024/02/14 00:51:39;;;;;;;0.50;0.50;;;;;;;;;;5048627;28;20022;-78
2024/02/14 00:54:06;;;;;;;1.40;0.75;;;;;;;;;;5056096;28;20552;-79
2024/02/14 00:56:32;;;;;;;0.90;0.50;;;;;;;;;;5057363;28;20032;-80
2024/02/14 00:58:58;;;;;;;0.43;0.40;;;;;;;;;;5040613;28;20021;-80
2024/02/14 01:01:25;;;;;;;0.70;0.50;;;;;;;;;;5050465;28;20022;-80
2024/02/14 01:03:51;;;;;;;0.82;0.70;;;;;;;;;;5049320;28;20056;-80
2024/02/14 01:06:18;;;;;;;1.13;0.60;;;;;;;;;;5057024;28;20053;-79
2024/02/14 01:08:44;;;;;;;1.33;0.50;;;;;;;;;;5057367;28;20364;-80
2024/02/14 01:11:10;;;;;;;0.32;0.32;;;;;;;;;;5043805;28;20014;-80
2024/02/14 01:13:39;;;;;;;1.65;0.52;;;;;;;;;;5049918;28;20040;-79
2024/02/14 01:16:05;;;;;;;0.88;0.60;;;;;;;;;;5056588;28;20375;-79
2024/02/14 01:18:31;;;;;;;0.68;0.35;;;;;;;;;;5057733;28;20475;-78
2024/02/14 01:21:01;;;;;;;0.63;0.50;;;;;;;;;;5051925;28;20129;-79
2024/02/14 01:23:27;;;;;;;1.20;0.60;;;;;;;;;;5056374;28;20021;-80
2024/02/14 01:25:56;;;;;;;0.63;0.50;;;;;;;;;;5056898;28;20053;-79
2024/02/14 01:28:22;;;;;;;1.02;0.70;;;;;;;;;;5064476;28;20107;-79
2024/02/14 01:30:51;;;;;;;2.50;0.90;;;;;;;;;;5052937;28;20025;-78
2024/02/14 01:33:17;;;;;;;1.95;1.73;;;;;;;;;;5062416;28;20044;-78
2024/02/14 01:35:43;;;;;;;1.08;0.80;;;;;;;;;;5063126;28;20045;-75
2024/02/14 01:38:09;;;;;;;1.92;0.75;;;;;;;;;;5061836;28;20033;-80
2024/02/14 01:40:35;;;;;;;2.15;0.75;;;;;;;;;;5052546;28;20013;-80
2024/02/14 01:43:01;;;;;;;0.70;0.70;;;;;;;;;;5058367;28;20075;-79
2024/02/14 01:45:30;;;;;;;1.45;0.73;;;;;;;;;;5050495;28;20025;-80
2024/02/14 01:47:56;;;;;;;1.05;0.60;;;;;;;;;;5050316;28;20013;-79
2024/02/14 01:50:28;;;;;;;1.15;0.73;;;;;;;;;;5071178;28;20013;-76
2024/02/14 01:52:56;;;;;;;0.80;0.50;;;;;;;;;;5073139;28;20126;-76
2024/02/14 01:55:22;;;;;;;0.85;0.70;;;;;;;;;;5055689;28;20045;-78
2024/02/14 01:57:48;;;;;;;1.27;0.57;;;;;;;;;;5059628;28;20025;-77
2024/02/14 02:00:17;;;;;;;0.65;0.40;;;;;;;;;;5061207;28;20157;-79
2024/02/14 02:02:43;;;;;;;0.77;0.50;;;;;;;;;;5057859;28;20021;-80
2024/02/14 02:05:10;;;;;;;0.90;0.60;;;;;;;;;;5044901;28;20101;-77
2024/02/14 02:07:39;;;;;;;0.52;0.52;;;;;;;;;;5069042;28;20013;-76
2024/02/14 02:10:05;;;;;;;0.60;0.43;;;;;;;;;;5063525;28;20018;-78
2024/02/14 02:12:32;;;;;;;0.55;0.52;;;;;;;;;;5062175;28;20040;-78
2024/02/14 02:14:58;;;;;;;0.32;0.32;;;;;;;;;;5054858;28;20013;-81
2024/02/14 02:17:25;;;;;;;0.52;0.43;;;;;;;;;;5065987;28;20104;-78
2024/02/14 02:19:54;;;;;;;1.42;0.60;;;;;;;;;;5063636;28;20043;-80
2024/02/14 02:22:20;;;;;;;1.08;0.70;;;;;;;;;;5045056;28;20017;-79
2024/02/14 02:24:47;;;;;;;1.40;0.63;;;;;;;;;;5053460;28;20051;-79
2024/02/14 02:27:16;;;;;;;1.35;0.50;;;;;;;;;;5058801;28;20037;-80
2024/02/14 02:29:42;;;;;;;0.73;0.60;;;;;;;;;;5050074;28;20116;-80
2024/02/14 02:32:09;;;;;;;1.00;0.90;;;;;;;;;;5045171;28;20344;-82
2024/02/14 02:34:39;;;;;;;0.60;0.60;;;;;;;;;;5057950;28;20032;-78
2024/02/14 02:37:09;;;;;;;1.10;0.70;;;;;;;;;;5057107;28;20474;-79
2024/02/14 02:39:38;;;;;;;1.83;0.50;;;;;;;;;;5062672;28;20048;-80
2024/02/14 02:42:04;;;;;;;0.40;0.40;;;;;;;;;;5051320;28;20051;-80
2024/02/14 02:44:34;;;;;;;0.88;0.55;;;;;;;;;;5059153;28;20025;-79
2024/02/14 02:47:00;;;;;;;2.95;0.80;;;;;;;;;;5056860;28;20018;-80
2024/02/14 02:49:26;;;;;;;0.98;0.55;;;;;;;;;;5054250;28;20014;-80
2024/02/14 02:51:52;;;;;;;0.73;0.55;;;;;;;;;;5061464;28;20052;-79
2024/02/14 02:54:18;;;;;;;1.13;0.70;;;;;;;;;;5064059;28;20035;-78
2024/02/14 02:56:44;;;;;;;0.60;0.40;;;;;;;;;;5064990;28;20033;-77
2024/02/14 02:59:11;;;;;;;0.60;0.55;;;;;;;;;;5070797;28;20482;-79
2024/02/14 03:01:37;;;;;;;0.52;0.50;;;;;;;;;;5071889;28;20092;-77
2024/02/14 03:04:03;;;;;;;1.00;0.40;;;;;;;;;;5074029;28;20063;-78
2024/02/14 03:06:31;;;;;;;1.00;0.40;;;;;;;;;;5061792;28;20029;-77
2024/02/14 03:08:57;;;;;;;0.85;0.50;;;;;;;;;;5082009;28;20033;-80
2024/02/14 03:11:25;;;;;;;0.98;0.68;;;;;;;;;;5057211;28;20097;-79
2024/02/14 03:13:52;;;;;;;0.57;0.38;;;;;;;;;;5055417;28;20097;-77
2024/02/14 03:16:18;;;;;;;0.52;0.50;;;;;;;;;;5049085;28;20021;-79
2024/02/14 03:18:44;;;;;;;0.57;0.57;;;;;;;;;;5055111;28;20017;-79
2024/02/14 03:21:11;;;;;;;0.73;0.30;;;;;;;;;;5046372;28;20025;-80
2024/02/14 03:23:39;;;;;;;0.52;0.52;;;;;;;;;;5062917;28;20059;-79
2024/02/14 03:26:07;;;;;;;0.60;0.60;;;;;;;;;;5063041;28;20893;-81
2024/02/14 03:28:33;;;;;;;0.82;0.57;;;;;;;;;;5060334;28;20448;-81
2024/02/14 03:31:00;;;;;;;0.20;0.20;;;;;;;;;;5065613;28;20044;-80
2024/02/14 03:33:26;;;;;;;0.45;0.30;;;;;;;;;;5067845;28;20118;-79
2024/02/14 03:35:52;;;;;;;0.45;0.32;;;;;;;;;;5064476;28;20021;-78
2024/02/14 03:38:26;;;;;;;0.52;0.50;;;;;;;;;;5064481;28;20048;-79
2024/02/14 03:40:52;;;;;;;0.98;0.47;;;;;;;;;;5070044;28;20020;-76
2024/02/14 03:43:18;;;;;;;1.50;0.52;;;;;;;;;;5083047;28;20013;-77
2024/02/14 03:45:44;;;;;;;0.63;0.35;;;;;;;;;;5077033;28;20029;-77
2024/02/14 03:48:11;;;;;;;2.08;0.30;;;;;;;;;;5078782;28;20047;-76
2024/02/14 03:50:39;;;;;;;0.50;0.35;;;;;;;;;;5076362;28;20017;-76
2024/02/14 03:53:05;;;;;;;0.50;0.50;;;;;;;;;;5080110;28;20025;-78
2024/02/14 03:55:31;;;;;;;0.55;0.30;;;;;;;;;;5063554;28;20067;-80
2024/02/14 03:57:57;;;;;;;1.08;0.60;;;;;;;;;;5062218;28;20056;-80
2024/02/14 04:00:23;;;;;;;0.52;0.20;;;;;;;;;;5065725;28;20016;-80
2024/02/14 04:02:58;;;;;;;0.40;0.40;;;;;;;;;;5059061;28;20104;-80
2024/02/14 04:05:24;;;;;;;0.30;0.20;;;;;;;;;;5061240;28;20013;-79
2024/02/14 04:07:52;;;;;;;0.88;0.40;;;;;;;;;;5061502;28;20041;-80
2024/02/14 04:10:18;;;;;;;1.15;0.30;;;;;;;;;;5060826;28;20038;-80
2024/02/14 04:12:44;;;;;;;0.98;0.30;;;;;;;;;;5055469;28;20029;-81
2024/02/14 04:15:10;;;;;;;0.43;0.43;;;;;;;;;;5057088;28;20033;-83
2024/02/14 04:17:36;;;;;;;2.15;0.47;;;;;;;;;;5063637;28;20033;-81
2024/02/14 04:20:03;;;;;;;0.40;0.30;;;;;;;;;;5061949;28;20021;-82
2024/02/14 04:22:30;;;;;;;0.50;0.35;;;;;;;;;;5044340;28;20025;-82
2024/02/14 04:24:56;;;;;;;2.22;0.70;;;;;;;;;;5042510;28;20185;-84
2024/02/14 04:27:22;;;;;;;0.98;0.40;;;;;;;;;;5063380;28;20036;-82
2024/02/14 04:29:49;;;;;;;0.35;0.20;;;;;;;;;;5070543;28;20068;-83
2024/02/14 04:32:15;;;;;;;0.47;0.40;;;;;;;;;;5071325;28;20025;-81
2024/02/14 04:34:43;;;;;;;0.52;0.40;;;;;;;;;;5056268;28;20032;-83
2024/02/14 04:37:18;;;;;;;0.68;0.40;;;;;;;;;;5054515;28;20168;-83
2024/02/14 04:39:44;;;;;;;1.00;0.40;;;;;;;;;;5052508;28;20379;-82
2024/02/14 04:42:10;;;;;;;0.40;0.40;;;;;;;;;;5039548;28;20045;-82
2024/02/14 04:44:36;;;;;;;0.32;0.30;;;;;;;;;;5041052;28;20044;-83
2024/02/14 04:47:03;;;;;;;0.47;0.28;;;;;;;;;;5034968;28;20488;-81
2024/02/14 04:49:29;;;;;;;0.52;0.35;;;;;;;;;;5048536;28;20055;-81
2024/02/14 04:51:55;;;;;;;0.40;0.30;;;;;;;;;;5050492;28;20043;-81
2024/02/14 04:54:21;;;;;;;0.55;0.50;;;;;;;;;;5062575;28;20032;-81
2024/02/14 04:56:48;;;;;;;1.02;0.30;;;;;;;;;;5059721;28;20071;-80
2024/02/14 04:59:14;;;;;;;0.30;0.30;;;;;;;;;;5052719;28;20052;-80
2024/02/14 05:01:40;;;;;;;0.40;0.40;;;;;;;;;;5041911;28;20447;-79
2024/02/14 05:04:06;;;;;;;0.20;0.20;;;;;;;;;;5045189;28;20120;-80
2024/02/14 05:06:33;;;;;;;0.28;0.15;;;;;;;;;;5070946;28;20016;-81
2024/02/14 05:09:00;;;;;;;0.70;0.30;;;;;;;;;;5055764;28;20025;-81
2024/02/14 05:11:26;;;;;;;0.40;0.32;;;;;;;;;;5055595;28;20021;-81
2024/02/14 05:13:52;;;;;;;0.52;0.40;;;;;;;;;;5059755;28;20082;-81
2024/02/14 05:16:19;;;;;;;0.20;0.20;;;;;;;;;;5050148;28;20024;-81
2024/02/14 05:18:45;;;;;;;0.32;0.32;;;;;;;;;;5049427;28;20058;-80
2024/02/14 05:21:11;;;;;;;0.22;0.22;;;;;;;;;;5053456;28;20108;-80
2024/02/14 05:23:37;;;;;;;0.35;0.30;;;;;;;;;;5046243;28;20495;-80
2024/02/14 05:26:03;;;;;;;0.93;0.40;;;;;;;;;;5056005;28;20022;-81
2024/02/14 05:28:31;;;;;;;0.20;0.20;;;;;;;;;;5059020;28;20049;-80
2024/02/14 05:30:57;;;;;;;0.85;0.45;;;;;;;;;;5062313;28;20109;-81
2024/02/14 05:33:23;;;;;;;0.80;0.50;;;;;;;;;;5060822;28;20032;-80
2024/02/14 05:35:50;;;;;;;0.38;0.38;;;;;;;;;;5065488;28;20036;-78
2024/02/14 05:38:19;;;;;;;0.45;0.38;;;;;;;;;;5078638;28;20021;-79
2024/02/14 05:40:45;;;;;;;0.70;0.50;;;;;;;;;;5067526;28;20103;-77
2024/02/14 05:43:11;;;;;;;0.60;0.47;;;;;;;;;;5065998;28;20025;-80
2024/02/14 05:45:38;;;;;;;0.70;0.43;;;;;;;;;;5058784;28;20070;-81
2024/02/14 05:48:04;;;;;;;2.05;0.60;;;;;;;;;;5050314;28;20013;-80
2024/02/14 05:50:30;;;;;;;0.93;0.50;;;;;;;;;;5043839;28;20099;-80
2024/02/14 05:52:57;;;;;;;0.50;0.50;;;;;;;;;;5049385;28;20033;-78
2024/02/14 05:55:24;;;;;;;1.05;0.55;;;;;;;;;;5070763;28;20035;-80
2024/02/14 05:57:53;;;;;;;0.30;0.30;;;;;;;;;;5057150;28;20123;-78
2024/02/14 06:00:20;;;;;;;0.68;0.45;;;;;;;;;;5052984;28;20025;-79
2024/02/14 06:02:47;;;;;;;1.48;0.70;;;;;;;;;;5056695;28;20029;-77
2024/02/14 06:05:14;;;;;;;0.60;0.40;;;;;;;;;;5057528;28;20039;-78
2024/02/14 06:07:41;;;;;;;0.57;0.35;;;;;;;;;;5072214;28;20654;-79
2024/02/14 06:10:08;;;;;;;0.65;0.40;;;;;;;;;;5061512;28;20017;-78
2024/02/14 06:12:35;;;;;;;1.10;0.32;;;;;;;;;;5059809;28;20053;-79
2024/02/14 06:15:01;;;;;;;0.30;0.30;;;;;;;;;;5057761;28;20045;-79
2024/02/14 06:17:27;;;;;;;1.05;0.75;;;;;;;;;;5046637;28;20058;-79
2024/02/14 06:19:54;;;;;;;0.82;0.60;;;;;;;;;;5058213;28;20171;-80
2024/02/14 06:22:20;;;;;;;0.75;0.70;;;;;;;;;;5061118;28;20040;-79
2024/02/14 06:24:48;;;;;;;1.63;0.77;;;;;;;;;;5048421;28;20076;-79
2024/02/14 06:27:14;;;;;;;0.50;0.50;;;;;;;;;;5052639;28;20024;-79
2024/02/14 06:29:44;;;;;;;0.65;0.65;;;;;;;;;;5051035;28;20076;-78
2024/02/14 06:32:12;;;;;;;1.25;0.65;;;;;;;;;;5054737;28;20028;-79
2024/02/14 06:34:38;;;;;;;0.52;0.50;;;;;;;;;;5041218;28;20029;-79
2024/02/14 06:37:04;;;;;;;1.10;0.55;;;;;;;;;;5050090;28;20475;-79
2024/02/14 06:39:30;;;;;;;1.10;0.52;;;;;;;;;;5056340;28;20200;-79
2024/02/14 06:42:00;;;;;;;1.55;0.85;;;;;;;;;;5049051;28;20025;-80
2024/02/14 06:44:26;;;;;;;0.73;0.50;;;;;;;;;;5050833;28;20021;-80
2024/02/14 06:46:52;;;;;;;0.80;0.65;;;;;;;;;;5053933;28;20096;-80
2024/02/14 06:49:18;;;;;;;0.73;0.60;;;;;;;;;;5058053;28;20376;-80
2024/02/14 06:51:45;;;;;;;1.45;0.60;;;;;;;;;;5050115;28;20013;-80
2024/02/14 06:54:14;;;;;;;0.68;0.63;;;;;;;;;;5057700;28;20032;-78
2024/02/14 06:56:40;;;;;;;1.23;0.80;;;;;;;;;;5051192;28;20072;-79
2024/02/14 06:59:06;;;;;;;0.55;0.55;;;;;;;;;;5044665;28;20021;-79
2024/02/14 07:01:33;;;;;;;0.82;0.60;;;;;;;;;;5048355;28;20028;-79
2024/02/14 07:04:01;;;;;;;0.60;0.57;;;;;;;;;;5047949;28;20029;-78
2024/02/14 07:06:27;;;;;;;0.70;0.70;;;;;;;;;;5055749;28;20028;-79
2024/02/14 07:08:54;;;;;;;1.15;0.60;;;;;;;;;;5052074;28;20048;-80
2024/02/14 07:11:20;;;;;;;0.60;0.57;;;;;;;;;;5056703;28;20013;-79
2024/02/14 07:13:46;;;;;;;0.63;0.40;;;;;;;;;;5055321;28;20087;-78
2024/02/14 07:16:12;;;;;;;1.42;0.68;;;;;;;;;;5051174;28;20021;-80
2024/02/14 07:18:38;;;;;;;1.00;0.60;;;;;;;;;;5055959;28;20024;-80
2024/02/14 07:21:05;;;;;;;0.82;0.52;;;;;;;;;;5037869;28;20055;-79
2024/02/14 07:23:32;;;;;;;1.17;0.65;;;;;;;;;;5051361;28;20427;-77
2024/02/14 07:25:59;;;;;;;0.73;0.65;;;;;;;;;;5049302;28;20029;-80
2024/02/14 07:28:25;;;;;;;1.30;0.68;;;;;;;;;;5051839;28;20017;-79
2024/02/14 07:30:51;;;;;;;0.65;0.52;;;;;;;;;;5046726;28;20104;-78
2024/02/14 07:33:17;;;;;;;0.63;0.40;;;;;;;;;;5051489;28;20356;-79
2024/02/14 07:35:47;;;;;;;2.15;0.73;;;;;;;;;;5057114;28;20040;-80
2024/02/14 07:38:13;;;;;;;1.80;0.70;;;;;;;;;;5052481;28;20030;-78
2024/02/14 07:40:40;;;;;;;1.10;0.70;;;;;;;;;;5042924;28;20120;-78
2024/02/14 07:43:07;;;;;;;1.55;1.02;;;;;;;;;;5053542;28;20098;-78
2024/02/14 07:45:36;;;;;;;1.25;0.77;;;;;;;;;;5059439;22;20043;-76
2024/02/14 07:48:04;;;;;;;1.20;0.73;;;;;;;;;;5036904;28;20061;-76
2024/02/14 07:50:30;;;;;;;1.55;0.65;;;;;;;;;;5035897;28;20018;-77
2024/02/14 07:52:56;;;;;;;0.88;0.55;;;;;;;;;;5041679;28;20067;-76
2024/02/14 07:55:24;;;;;;;4.78;0.98;;;;;;;;;;5032383;28;20498;-76
2024/02/14 07:57:50;;;;;;;1.33;0.52;;;;;;;;;;5016812;28;20061;-75
2024/02/14 08:00:22;;;;;;;1.90;1.10;;;;;;;;;;5014876;28;20432;-76
2024/02/14 08:02:48;;;;;;;1.48;0.68;;;;;;;;;;5013781;28;20089;-77
2024/02/14 08:05:14;;;;;;;1.98;0.68;;;;;;;;;;5005193;28;20036;-77
2024/02/14 08:07:40;;;;;;;1.27;0.60;;;;;;;;;;5012749;28;20033;-77
2024/02/14 08:10:07;;;;;;;0.70;0.55;;;;;;;;;;5014356;28;20085;-78
2024/02/14 08:12:33;;;;;;;0.73;0.60;;;;;;;;;;5013905;28;20018;-77
2024/02/14 08:15:03;;;;;;;0.68;0.40;;;;;;;;;;5013601;28;20476;-78
2024/02/14 08:17:30;;;;;;;0.60;0.43;;;;;;;;;;5011572;28;20574;-77
2024/02/14 08:19:56;;;;;;;0.52;0.40;;;;;;;;;;5012547;28;20487;-77
2024/02/14 08:22:22;;;;;;;2.65;0.63;;;;;;;;;;5013644;28;20572;-77
2024/02/14 08:24:48;;;;;;;0.70;0.60;;;;;;;;;;5013063;28;20045;-77
2024/02/14 08:27:14;;;;;;;0.82;0.60;;;;;;;;;;5007063;28;20032;-78
2024/02/14 08:29:40;;;;;;;0.52;0.35;;;;;;;;;;5008371;28;20030;-77
2024/02/14 08:32:06;;;;;;;0.80;0.60;;;;;;;;;;5016438;28;20030;-76
2024/02/14 08:34:33;;;;;;;0.75;0.38;;;;;;;;;;5017566;28;20057;-77
2024/02/14 08:36:59;;;;;;;1.55;0.73;;;;;;;;;;5015661;28;20109;-77
2024/02/14 08:39:26;;;;;;;0.60;0.60;;;;;;;;;;5018143;28;20069;-77
2024/02/14 08:41:52;;;;;;;1.55;0.45;;;;;;;;;;5016477;28;20040;-76
2024/02/14 08:44:18;;;;;;;0.77;0.57;;;;;;;;;;5018497;28;20048;-77
2024/02/14 08:46:48;;;;;;;0.82;0.60;;;;;;;;;;5013387;28;20037;-77
2024/02/14 08:49:14;;;;;;;0.80;0.50;;;;;;;;;;5011446;28;20081;-77
2024/02/14 08:51:42;;;;;;;0.60;0.60;;;;;;;;;;5018068;28;20420;-77
2024/02/14 08:54:08;;;;;;;0.50;0.50;;;;;;;;;;5018627;28;20034;-76
2024/02/14 08:56:35;;;;;;;1.05;0.60;;;;;;;;;;5016647;28;20022;-76
2024/02/14 08:59:02;;;;;;;1.00;0.50;;;;;;;;;;5019685;28;20032;-77
2024/02/14 09:01:29;;;;;;;0.60;0.60;;;;;;;;;;5017671;28;20026;-76
2024/02/14 09:03:55;;;;;;;0.40;0.40;;;;;;;;;;5016716;28;20124;-76
2024/02/14 09:06:21;;;;;;;0.57;0.40;;;;;;;;;;5018059;28;20021;-76
2024/02/14 09:08:47;;;;;;;2.50;0.75;;;;;;;;;;5019061;28;20096;-76
2024/02/14 09:11:15;;;;;;;0.60;0.43;;;;;;;;;;5020836;28;20030;-77
2024/02/14 09:13:41;;;;;;;0.70;0.70;;;;;;;;;;5014887;28;20034;-77
2024/02/14 09:16:08;;;;;;;0.60;0.50;;;;;;;;;;5016091;28;20029;-75
2024/02/14 09:18:35;;;;;;;1.05;0.63;;;;;;;;;;5013586;28;20372;-76
2024/02/14 09:21:03;;;;;;;1.20;0.77;;;;;;;;;;5016016;28;20036;-76
2024/02/14 09:23:30;;;;;;;2.05;0.75;;;;;;;;;;5016622;28;20069;-76
2024/02/14 09:25:57;;;;;;;1.55;0.80;;;;;;;;;;5023140;28;20431;-76
2024/02/14 09:28:23;;;;;;;1.08;0.80;;;;;;;;;;5018128;28;20021;-75
2024/02/14 09:30:49;;;;;;;1.15;0.80;;;;;;;;;;5017931;28;20113;-77
2024/02/14 09:33:16;;;;;;;1.55;0.70;;;;;;;;;;5018605;28;20017;-77
2024/02/14 09:35:45;;;;;;;1.13;0.85;;;;;;;;;;5018636;28;20025;-77
2024/02/14 09:38:15;;;;;;;1.15;0.73;;;;;;;;;;5029072;28;20048;-76
2024/02/14 09:40:41;;;;;;;0.70;0.70;;;;;;;;;;5028844;28;20117;-76
2024/02/14 09:43:12;;;;;;;1.15;0.65;;;;;;;;;;5032633;28;20063;-76
2024/02/14 09:45:40;;;;;;;1.33;0.88;;;;;;;;;;5031685;28;20090;-76
2024/02/14 09:48:07;;;;;;;1.38;0.60;;;;;;;;;;5032196;28;20034;-75
2024/02/14 09:50:40;;;;;;;3.42;1.25;;;;;;;;;;5027262;28;20022;-76
2024/02/14 09:53:08;;;;;;;2.28;1.48;;;;;;;;;;5025552;28;20129;-77
2024/02/14 09:55:34;;;;;;;3.65;1.30;;;;;;;;;;5032286;28;20026;-75
2024/02/14 09:58:04;;;;;;;3.15;1.58;;;;;;;;;;5036703;28;20038;-75
2024/02/14 10:00:32;;;;;;;1.40;1.00;;;;;;;;;;5037223;28;20002;-77
2024/02/14 10:02:59;;;;;;;1.50;1.00;;;;;;;;;;5032039;28;20026;-76
2024/02/14 10:05:25;;;;;;;0.65;0.65;;;;;;;;;;5027625;28;20026;-74
2024/02/14 10:07:51;;;;;;;1.33;0.70;;;;;;;;;;5016453;28;20053;-75
2024/02/14 10:10:17;;;;;;;1.00;0.95;;;;;;;;;;5016980;28;20037;-76
2024/02/14 10:12:43;;;;;;;0.98;0.80;;;;;;;;;;5016516;28;20037;-77
2024/02/14 10:15:10;;;;;;;1.23;0.85;;;;;;;;;;5016599;28;20049;-75
2024/02/14 10:17:36;;;;;;;1.58;0.50;;;;;;;;;;5015410;28;20481;-76
2024/02/14 10:20:06;;;;;;;0.50;0.50;;;;;;;;;;5017640;28;20045;-77
2024/02/14 10:22:36;;;;;;;1.40;0.68;;;;;;;;;;5014232;28;20374;-76
2024/02/14 10:25:03;;;;;;;0.52;0.52;;;;;;;;;;5015795;28;20123;-77
2024/02/14 10:27:31;;;;;;;0.52;0.52;;;;;;;;;;5015507;28;20511;-77
2024/02/14 10:29:58;;;;;;;0.43;0.43;;;;;;;;;;5015555;28;20029;-78
2024/02/14 10:32:24;;;;;;;0.98;0.50;;;;;;;;;;5015765;28;20472;-76
2024/02/14 10:34:50;;;;;;;0.43;0.35;;;;;;;;;;5013453;28;20037;-76
2024/02/14 10:37:18;;;;;;;1.08;0.80;;;;;;;;;;5015590;28;20026;-76
2024/02/14 10:39:47;;;;;;;1.30;0.70;;;;;;;;;;5022261;28;20026;-75
2024/02/14 10:42:13;;;;;;;0.75;0.60;;;;;;;;;;5029601;28;20022;-74
2024/02/14 10:44:40;;;;;;;0.55;0.55;;;;;;;;;;5030073;28;20030;-77
2024/02/14 10:47:07;;;;;;;1.08;0.50;;;;;;;;;;5032097;28;20036;-75
2024/02/14 10:49:33;;;;;;;0.52;0.52;;;;;;;;;;5037923;28;20377;-75
2024/02/14 10:52:02;;;;;;;1.00;0.60;;;;;;;;;;5058960;28;20021;-73
2024/02/14 10:54:28;;;;;;;0.60;0.60;;;;;;;;;;5033679;28;20038;-74
2024/02/14 10:56:57;;;;;;;0.65;0.60;;;;;;;;;;5026840;28;20030;-74
2024/02/14 10:59:24;;;;;;;1.10;0.77;;;;;;;;;;5028485;28;20010;-74
2024/02/14 11:01:51;;;;;;;0.52;0.50;;;;;;;;;;5026084;28;20061;-76
2024/02/14 11:04:18;;;;;;;0.80;0.80;;;;;;;;;;5029484;28;20041;-77
2024/02/14 11:06:58;;;;;;;1.35;0.70;;;;;;;;;;5027174;28;20481;-77
2024/02/14 11:09:33;;;;;;;0.43;0.43;;;;;;;;;;5012865;28;20025;-76
2024/02/14 11:12:02;;;;;;;1.67;1.00;;;;;;;;;;5016985;28;20072;-77
2024/02/14 11:14:30;;;;;;;1.92;0.80;;;;;;;;;;5019085;28;20026;-77
2024/02/14 11:16:56;;;;;;;0.73;0.63;;;;;;;;;;5025839;28;20086;-77
2024/02/14 11:19:33;;;;;;;0.70;0.50;;;;;;;;;;5034585;28;20010;-77
2024/02/14 11:22:01;;;;;;;0.82;0.52;;;;;;;;;;5029213;28;20038;-77
2024/02/14 11:24:31;;;;;;;1.13;0.60;;;;;;;;;;5036054;28;20029;-77
2024/02/14 11:26:57;;;;;;;0.95;0.60;;;;;;;;;;5034922;28;20018;-76
2024/02/14 11:29:30;;;;;;;1.40;0.68;;;;;;;;;;5034526;28;20053;-76
2024/02/14 11:32:00;;;;;;;1.23;0.82;;;;;;;;;;5031762;28;20036;-76
2024/02/14 11:34:26;;;;;;;0.95;0.55;;;;;;;;;;5027941;28;20026;-77
2024/02/14 11:36:52;;;;;;;2.33;0.80;;;;;;;;;;5029373;28;20025;-76
2024/02/14 11:39:18;;;;;;;1.38;0.90;;;;;;;;;;5054762;28;20022;-77
2024/02/14 11:41:44;;;;;;;0.85;0.80;;;;;;;;;;5027894;28;20097;-78
2024/02/14 11:44:11;;;;;;;0.85;0.70;;;;;;;;;;5040054;28;20081;-78
2024/02/14 11:46:38;;;;;;;1.85;1.67;;;;;;;;;;5049060;28;20018;-78
2024/02/14 11:49:05;;;;;;;3.33;1.15;;;;;;;;;;5032365;28;20037;-76
2024/02/14 11:51:33;;;;;;;1.23;0.70;;;;;;;;;;5047495;28;20089;-77
2024/02/14 11:54:04;;;;;;;3.92;0.70;;;;;;;;;;5023476;28;20034;-77
2024/02/14 11:56:36;;;;;;;1.48;1.10;;;;;;;;;;5023162;28;20026;-78
2024/02/14 11:59:03;;;;;;;1.98;1.00;;;;;;;;;;5033469;28;20041;-77
2024/02/14 12:01:33;;;;;;;0.73;0.65;;;;;;;;;;5040643;28;20037;-77
2024/02/14 12:04:00;;;;;;;1.23;0.80;;;;;;;;;;5023472;28;20524;-76
2024/02/14 12:06:27;;;;;;;0.63;0.55;;;;;;;;;;5022297;28;20093;-77
2024/02/14 12:08:53;;;;;;;1.25;0.82;;;;;;;;;;5038011;28;20036;-76
2024/02/14 12:11:20;;;;;;;1.65;0.90;;;;;;;;;;5030703;28;20046;-78
2024/02/14 12:13:50;;;;;;;0.93;0.63;;;;;;;;;;5016086;28;20026;-76
2024/02/14 12:16:16;;;;;;;0.80;0.70;;;;;;;;;;5006587;28;20049;-77
2024/02/14 12:18:42;;;;;;;0.88;0.85;;;;;;;;;;5015141;28;20416;-78
2024/02/14 12:21:08;;;;;;;0.93;0.70;;;;;;;;;;5015979;28;20156;-77
2024/02/14 12:23:35;;;;;;;1.08;0.85;;;;;;;;;;5018049;28;20065;-76
2024/02/14 12:26:04;;;;;;;2.88;0.95;;;;;;;;;;5021079;28;20018;-76
2024/02/14 12:28:31;;;;;;;1.00;0.70;;;;;;;;;;5035876;28;20110;-77
2024/02/14 12:30:58;;;;;;;0.60;0.60;;;;;;;;;;5018271;28;20030;-77
2024/02/14 12:33:27;;;;;;;1.02;0.65;;;;;;;;;;5010613;28;20029;-77
2024/02/14 12:35:58;;;;;;;1.85;1.13;;;;;;;;;;5046002;28;20030;-77
2024/02/14 12:38:24;;;;;;;0.95;0.85;;;;;;;;;;5030367;28;20021;-77
2024/02/14 12:40:53;;;;;;;1.55;0.52;;;;;;;;;;5036357;28;20392;-76
2024/02/14 12:43:20;;;;;;;2.25;0.80;;;;;;;;;;5020018;28;20064;-77
2024/02/14 12:45:46;;;;;;;0.70;0.60;;;;;;;;;;5031385;28;20496;-78
2024/02/14 12:48:15;;;;;;;1.27;0.50;;;;;;;;;;5017114;28;20076;-77
2024/02/14 12:50:48;;;;;;;2.60;0.80;;;;;;;;;;5014713;28;20041;-76
2024/02/14 12:53:14;;;;;;;1.35;0.85;;;;;;;;;;5014145;28;20030;-77
2024/02/14 12:55:40;;;;;;;0.60;0.52;;;;;;;;;;5013965;28;20026;-77
2024/02/14 12:58:06;;;;;;;0.93;0.60;;;;;;;;;;5013868;28;20032;-77
2024/02/14 13:00:32;;;;;;;0.80;0.55;;;;;;;;;;5014789;28;20030;-77
2024/02/14 13:03:00;;;;;;;0.65;0.45;;;;;;;;;;5013877;28;20276;-77
2024/02/14 13:05:26;;;;;;;1.15;0.68;;;;;;;;;;5011038;28;20022;-77
2024/02/14 13:07:52;;;;;;;2.05;0.60;;;;;;;;;;5015173;28;20033;-78
2024/02/14 13:10:18;;;;;;;0.77;0.40;;;;;;;;;;5021732;28;20014;-77
2024/02/14 13:12:45;;;;;;;1.00;0.60;;;;;;;;;;5029338;28;20024;-78
2024/02/14 13:15:11;;;;;;;0.75;0.50;;;;;;;;;;5015394;28;20688;-76
2024/02/14 13:17:37;;;;;;;0.57;0.55;;;;;;;;;;5017646;28;20022;-78
2024/02/14 13:20:04;;;;;;;1.98;0.60;;;;;;;;;;5019885;28;20025;-76
2024/02/14 13:22:30;;;;;;;0.70;0.70;;;;;;;;;;5017340;28;20022;-77
2024/02/14 13:24:56;;;;;;;1.08;0.70;;;;;;;;;;5009291;28;20040;-79
2024/02/14 13:27:23;;;;;;;0.43;0.40;;;;;;;;;;5016956;28;20040;-76
2024/02/14 13:29:49;;;;;;;0.50;0.50;;;;;;;;;;5017058;28;20093;-77
2024/02/14 13:32:15;;;;;;;0.93;0.45;;;;;;;;;;5018314;28;20094;-77
2024/02/14 13:34:43;;;;;;;0.73;0.73;;;;;;;;;;5017514;28;20551;-75
2024/02/14 13:37:09;;;;;;;0.50;0.50;;;;;;;;;;5015091;28;20097;-76
2024/02/14 13:39:36;;;;;;;0.40;0.40;;;;;;;;;;5016143;28;20022;-78
2024/02/14 13:42:02;;;;;;;0.65;0.47;;;;;;;;;;5016772;28;20137;-77
2024/02/14 13:44:29;;;;;;;0.30;0.30;;;;;;;;;;5017401;28;20018;-76
2024/02/14 13:46:55;;;;;;;1.85;0.45;;;;;;;;;;5012233;28;20088;-77
2024/02/14 13:49:22;;;;;;;1.00;0.52;;;;;;;;;;5017459;28;20104;-76
2024/02/14 13:51:52;;;;;;;1.13;0.95;;;;;;;;;;5017426;28;20018;-77
2024/02/14 13:54:22;;;;;;;0.50;0.47;;;;;;;;;;5017857;28;20022;-76
2024/02/14 13:56:48;;;;;;;1.58;0.50;;;;;;;;;;5030061;28;20033;-75
2024/02/14 13:59:15;;;;;;;0.93;0.75;;;;;;;;;;5026850;28;20032;-77
2024/02/14 14:01:41;;;;;;;2.50;0.60;;;;;;;;;;5014877;28;20027;-76
2024/02/14 14:04:07;;;;;;;0.75;0.40;;;;;;;;;;5014594;28;20029;-77
2024/02/14 14:06:34;;;;;;;0.40;0.40;;;;;;;;;;5017252;28;20518;-77
2024/02/14 14:09:02;;;;;;;0.90;0.60;;;;;;;;;;5014663;28;20018;-77
2024/02/14 14:11:29;;;;;;;1.35;0.45;;;;;;;;;;5031972;28;20022;-77
2024/02/14 14:13:55;;;;;;;0.65;0.50;;;;;;;;;;5016414;28;20030;-77
2024/02/14 14:16:22;;;;;;;0.98;0.50;;;;;;;;;;5016426;28;20018;-77
2024/02/14 14:18:49;;;;;;;1.63;0.30;;;;;;;;;;5016621;28;20049;-76
2024/02/14 14:21:16;;;;;;;1.65;0.70;;;;;;;;;;5016115;28;20037;-77
2024/02/14 14:23:42;;;;;;;0.75;0.50;;;;;;;;;;5015686;28;20034;-77
2024/02/14 14:26:08;;;;;;;1.73;0.73;;;;;;;;;;5013756;28;20108;-76
2024/02/14 14:28:34;;;;;;;2.50;0.40;;;;;;;;;;5016181;28;20049;-77
2024/02/14 14:31:01;;;;;;;0.60;0.43;;;;;;;;;;5015847;28;20093;-78
2024/02/14 14:33:27;;;;;;;1.58;0.50;;;;;;;;;;5015778;28;20499;-77
2024/02/14 14:35:54;;;;;;;0.50;0.50;;;;;;;;;;5020666;28;20076;-78
2024/02/14 14:38:21;;;;;;;0.60;0.60;;;;;;;;;;5037160;28;20018;-76
2024/02/14 14:40:47;;;;;;;2.28;0.52;;;;;;;;;;5037333;28;20041;-78